Time;durP1;ratioP1;P1;durP2;ratioP2;P2;SDS_P1;SDS_P2;PMS_P1;PMS_P2;Temp;Humidity;BMP_temperature;BMP_pressure;BME280_temperature;BME280_humidity;BME280_pressure;Samples;Min_cycle;Max_cycle;Signal;HPM_P1;HPM_P2
2023/10/27 00:01:09;;;;;;;21.50;14.30;;;;;;;12.12;100.00;98596.75;5120532;34;34815;-73
2023/10/27 00:04:12;;;;;;;21.87;14.00;;;;;;;12.13;100.00;98593.06;5120488;34;34711;-72
2023/10/27 00:07:18;;;;;;;29.05;14.35;;;;;;;12.13;100.00;98590.41;5120409;34;34101;-73
2023/10/27 00:10:22;;;;;;;29.10;14.65;;;;;;;12.16;100.00;98579.31;5120273;34;34059;-73
2023/10/27 00:13:25;;;;;;;32.63;15.70;;;;;;;12.14;100.00;98583.25;5120410;34;34000;-73
2023/10/27 00:16:28;;;;;;;23.73;13.88;;;;;;;12.14;100.00;98581.41;5119735;34;34015;-73
2023/10/27 00:19:31;;;;;;;28.67;15.30;;;;;;;12.17;100.00;98580.94;5120327;34;34044;-73
2023/10/27 00:22:35;;;;;;;20.58;12.32;;;;;;;12.18;100.00;98582.56;5120275;34;34276;-73
2023/10/27 00:25:38;;;;;;;24.33;12.20;;;;;;;12.22;100.00;98580.28;5120204;34;34300;-73
2023/10/27 00:28:41;;;;;;;25.88;13.77;;;;;;;12.22;100.00;98577.63;5120580;34;34814;-73
2023/10/27 00:31:44;;;;;;;33.38;15.40;;;;;;;12.23;100.00;98571.28;5120177;34;34423;-73
2023/10/27 00:34:47;;;;;;;24.67;14.63;;;;;;;12.26;100.00;98568.16;5120268;34;34072;-73
2023/10/27 00:37:50;;;;;;;27.52;14.30;;;;;;;12.29;100.00;98565.06;5120239;34;34746;-73
2023/10/27 00:40:52;;;;;;;28.73;14.98;;;;;;;12.29;100.00;98561.59;5120101;34;35073;-73
2023/10/27 00:43:55;;;;;;;22.87;12.37;;;;;;;12.37;100.00;98561.28;5120108;34;34014;-74
2023/10/27 00:46:58;;;;;;;25.17;13.95;;;;;;;12.39;100.00;98559.22;5134302;34;34028;-73
2023/10/27 00:50:01;;;;;;;26.75;14.38;;;;;;;12.44;100.00;98554.06;5136181;34;34271;-73
2023/10/27 00:53:06;;;;;;;21.37;12.15;;;;;;;12.50;100.00;98556.59;5114137;34;34318;-73
2023/10/27 00:56:09;;;;;;;23.75;13.88;;;;;;;12.53;100.00;98555.38;5136301;34;35045;-73
2023/10/27 00:59:13;;;;;;;18.80;11.15;;;;;;;12.53;100.00;98558.84;5136641;34;34108;-73
2023/10/27 01:02:18;;;;;;;20.30;11.82;;;;;;;12.62;100.00;98554.81;5136308;34;34159;-73
2023/10/27 01:05:21;;;;;;;23.02;12.02;;;;;;;12.69;100.00;98559.22;5136233;34;34196;-73
2023/10/27 01:08:24;;;;;;;18.85;11.05;;;;;;;12.73;100.00;98555.88;5136315;34;34828;-73
2023/10/27 01:11:28;;;;;;;17.55;10.38;;;;;;;12.76;100.00;98558.13;5136090;34;34327;-73
2023/10/27 01:14:31;;;;;;;17.87;9.57;;;;;;;12.81;100.00;83549.88;5136146;34;33982;-73
2023/10/27 03:05:24;;;;;;;16.42;9.50;;;;;;;12.75;100.00;98531.72;5138022;34;33692;-73
2023/10/27 03:09:12;;;;;;;14.18;5.68;;;;;;;12.75;100.00;98531.72;4938056;34;296922;-69
2023/10/27 03:12:16;;;;;;;14.35;5.47;;;;;;;12.75;100.00;98531.72;5118098;34;296854;-69
2023/10/27 03:15:19;;;;;;;11.88;5.22;;;;;;;13.56;100.00;98440.50;5068147;34;328666;-70
2023/10/27 03:18:23;;;;;;;17.15;6.20;;;;;;;13.56;100.00;98440.50;5137336;34;34387;-69
2023/10/27 03:21:26;;;;;;;13.77;5.82;;;;;;;13.59;100.00;98422.19;5137325;34;34146;-69
2023/10/27 03:24:29;;;;;;;13.23;5.65;;;;;;;13.54;100.00;98414.09;5137267;34;34125;-69
2023/10/27 03:27:33;;;;;;;11.43;5.30;;;;;;;-141.34;100.00;64401.34;5109731;34;296947;-69
2023/10/27 03:30:35;;;;;;;13.27;5.20;;;;;;;13.48;100.00;98415.84;5076952;34;296827;-69
2023/10/27 03:33:39;;;;;;;14.90;5.90;;;;;;;13.57;100.00;98402.97;5137501;34;34506;-69
2023/10/27 03:36:42;;;;;;;17.52;5.85;;;;;;;13.51;100.00;98395.91;5137268;34;35621;-70
2023/10/27 03:39:45;;;;;;;9.43;4.75;;;;;;;13.50;100.00;98394.31;5137565;34;34152;-70
2023/10/27 03:42:48;;;;;;;15.38;5.35;;;;;;;13.47;100.00;98379.59;5137328;34;35105;-70
2023/10/27 03:45:51;;;;;;;13.77;5.90;;;;;;;13.48;100.00;98389.22;5137005;34;34140;-70
2023/10/27 03:48:53;;;;;;;11.77;5.12;;;;;;;13.51;100.00;98379.13;5137283;34;35794;-70
2023/10/27 03:51:57;;;;;;;10.50;4.90;;;;;;;13.53;100.00;98382.34;5137060;34;34103;-70
2023/10/27 03:55:00;;;;;;;15.00;5.10;;;;;;;13.50;100.00;98378.31;5137246;34;34159;-71
2023/10/27 03:58:16;;;;;;;11.75;4.50;;;;;;;13.54;100.00;98370.66;5137172;34;34149;-71
2023/10/27 04:01:19;;;;;;;8.45;4.75;;;;;;;13.58;100.00;98353.97;5137171;34;34397;-71
2023/10/27 04:04:22;;;;;;;8.82;5.18;;;;;;;13.58;100.00;98353.16;5137053;34;34925;-70
2023/10/27 04:07:26;;;;;;;8.35;5.95;;;;;;;13.57;100.00;98346.22;5137077;34;34727;-70
2023/10/27 04:10:32;;;;;;;10.65;6.80;;;;;;;13.55;100.00;98348.31;5136944;34;34086;-71
2023/10/27 04:13:35;;;;;;;9.88;5.90;;;;;;;13.55;100.00;98333.16;5137046;34;34419;-71
2023/10/27 04:16:38;;;;;;;6.90;5.25;;;;;;;13.55;100.00;98333.16;5137068;34;35051;-72
2023/10/27 04:19:43;;;;;;;15.85;5.80;;;;;;;13.56;100.00;98323.25;5137018;34;34725;-71
2023/10/27 04:22:46;;;;;;;12.65;5.18;;;;;;;13.58;100.00;98315.84;5136682;34;34015;-71
2023/10/27 04:25:51;;;;;;;10.38;4.68;;;;;;;13.59;100.00;98317.47;5136446;34;34211;-72
2023/10/27 04:28:54;;;;;;;12.80;4.78;;;;;;;13.61;100.00;98310.84;5136707;34;34185;-72
2023/10/27 04:31:57;;;;;;;10.68;5.25;;;;;;;13.61;100.00;98300.19;5136682;34;33984;-72
2023/10/27 04:35:00;;;;;;;10.10;4.40;;;;;;;13.61;100.00;98294.06;5136829;34;34835;-73
2023/10/27 04:38:03;;;;;;;7.03;3.92;;;;;;;13.61;100.00;98284.22;5136792;34;34080;-74
2023/10/27 04:41:08;;;;;;;10.57;5.50;;;;;;;13.63;100.00;98274.12;5136710;34;34763;-74
2023/10/27 04:44:12;;;;;;;11.38;5.43;;;;;;;13.66;100.00;98272.84;5136083;34;34049;-75
2023/10/27 04:47:16;;;;;;;10.68;5.60;;;;;;;13.67;100.00;98253.16;5131043;34;34418;-76
2023/10/27 04:50:19;;;;;;;6.57;3.97;;;;;;;13.70;100.00;98247.37;5136618;34;34823;-75
2023/10/27 04:53:22;;;;;;;6.32;3.47;;;;;;;13.64;100.00;98237.66;5136488;34;35211;-75
2023/10/27 04:56:26;;;;;;;7.72;3.70;;;;;;;13.64;100.00;98238.47;5136506;34;34238;-75
2023/10/27 04:59:30;;;;;;;4.78;2.87;;;;;;;13.63;100.00;98220.03;5136409;34;35020;-76
2023/10/27 05:02:33;;;;;;;3.67;2.33;;;;;;;13.61;100.00;98203.47;5136343;34;34092;-76
2023/10/27 05:05:36;;;;;;;4.65;2.83;;;;;;;13.61;100.00;98206.94;5121514;34;34679;-74
2023/10/27 05:08:38;;;;;;;5.47;2.85;;;;;;;13.61;100.00;98208.81;5136199;34;34000;-75
2023/10/27 05:11:42;;;;;;;8.02;2.85;;;;;;;13.56;100.00;98198.06;5136113;34;34032;-75
2023/10/27 05:14:45;;;;;;;7.37;2.83;;;;;;;13.57;100.00;98207.66;5136167;34;34163;-76
2023/10/27 06:19:48;;;;;;;9.60;3.37;;;;;;;13.54;100.00;98198.31;5135672;34;35047;-76
2023/10/27 07:15:58;;;;;;;7.68;3.72;;;;;;;-141.34;100.00;83700.16;4838806;34;325318;-75
2023/10/27 07:19:33;;;;;;;6.32;3.87;;;;;;;13.54;100.00;98198.31;4828091;34;324989;-75
2023/10/27 08:54:27;;;;;;;6.72;4.95;;;;;;;13.54;100.00;98198.31;4842373;34;324852;-75
2023/10/27 10:10:42;;;;;;;8.25;2.65;;;;;;;-141.34;100.00;64401.34;4845610;34;325185;-74
2023/10/27 10:13:50;;;;;;;7.32;2.80;;;;;;;13.54;100.00;64401.34;5137546;34;34189;-77
